createdAt,value
2022-09-24T00:02:30.727Z,98148.81
2022-09-24T00:05:40.169Z,98153.34
2022-09-24T00:08:42.316Z,98151.50
2022-09-24T00:11:45.938Z,98145.81
2022-09-24T00:14:47.827Z,98144.72
2022-09-24T00:17:49.580Z,98149.00
2022-09-24T00:20:51.402Z,98142.50
2022-09-24T00:23:56.195Z,98141.69
2022-09-24T00:26:58.640Z,98134.84
2022-09-24T00:30:00.414Z,98132.63
2022-09-24T00:33:03.422Z,98122.06
2022-09-24T00:36:05.865Z,98122.38
2022-09-24T00:39:07.863Z,98116.00
2022-09-24T00:42:10.380Z,98112.91
2022-09-24T00:45:12.196Z,98118.38
2022-09-24T00:48:14.540Z,98121.38
2022-09-24T00:51:20.205Z,98110.81
2022-09-24T00:54:28.906Z,98114.16
2022-09-24T00:57:31.482Z,98108.69
2022-09-24T01:00:34.156Z,98106.66
2022-09-24T01:03:41.297Z,98112.22
2022-09-24T01:06:43.649Z,98110.06
2022-09-24T01:09:47.867Z,98105.31
2022-09-24T01:12:59.706Z,98105.81
2022-09-24T01:16:10.594Z,98108.84
2022-09-24T01:19:45.282Z,98102.56
2022-09-24T01:23:18.233Z,98102.06
2022-09-24T01:26:48.018Z,98103.84
2022-09-24T01:29:53.715Z,98090.53
2022-09-24T01:32:58.532Z,98100.97
2022-09-24T01:36:06.917Z,98105.88
2022-09-24T01:39:09.332Z,98105.06
2022-09-24T01:42:12.411Z,98101.03
2022-09-24T01:45:14.828Z,98098.06
2022-09-24T01:48:21.276Z,98097.91
2022-09-24T01:51:34.787Z,98104.19
2022-09-24T01:54:42.955Z,98097.81
2022-09-24T01:57:57.590Z,98093.66
2022-09-24T02:01:13.119Z,98104.34
2022-09-24T02:04:18.761Z,98099.31
2022-09-24T02:07:25.287Z,98092.50
2022-09-24T02:10:31.075Z,98095.03
2022-09-24T02:13:47.542Z,98090.72
2022-09-24T02:16:50.117Z,98085.25
2022-09-24T02:19:53.179Z,98083.34
2022-09-24T02:22:57.674Z,98096.00
2022-09-24T02:26:02.166Z,98084.34
2022-09-24T02:29:06.009Z,98081.88
2022-09-24T02:32:09.555Z,98073.97
2022-09-24T02:35:13.013Z,98066.56
2022-09-24T02:38:18.284Z,98069.91
2022-09-24T02:41:24.181Z,98075.25
2022-09-24T02:44:25.877Z,98063.19
2022-09-24T02:47:29.202Z,98059.59
2022-09-24T02:50:41.363Z,98057.91
2022-09-24T02:53:43.260Z,98056.03
2022-09-24T02:56:45.180Z,98056.72
2022-09-24T02:59:47.482Z,98052.69
2022-09-24T03:02:49.293Z,98046.41
2022-09-24T03:05:53.315Z,98049.19
2022-09-24T03:08:55.221Z,98048.53
2022-09-24T03:12:00.682Z,98049.84
2022-09-24T03:15:03.604Z,98052.00
2022-09-24T03:18:15.612Z,98044.81
2022-09-24T03:21:20.347Z,98050.91
2022-09-24T03:24:22.453Z,98045.13
2022-09-24T03:27:24.293Z,98039.44
2022-09-24T03:30:44.643Z,98035.63
2022-09-24T03:33:49.892Z,98029.00
2022-09-24T03:36:51.787Z,98029.59
2022-09-24T03:39:53.620Z,98025.72
2022-09-24T03:42:56.053Z,98032.81
2022-09-24T03:45:58.704Z,98030.97
2022-09-24T03:49:00.601Z,98027.19
2022-09-24T03:52:03.214Z,98022.72
2022-09-24T03:55:09.222Z,98031.75
2022-09-24T03:58:12.115Z,98023.94
2022-09-24T04:01:14.784Z,98021.66
2022-09-24T04:04:17.735Z,98028.56
2022-09-24T04:07:19.630Z,98029.84
2022-09-24T04:10:22.135Z,98019.28
2022-09-24T04:13:24.197Z,98022.25
2022-09-24T04:16:26.403Z,98022.44
2022-09-24T04:19:29.627Z,98023.38
2022-09-24T04:22:31.545Z,98011.75
2022-09-24T04:25:36.909Z,98010.56
2022-09-24T04:28:39.437Z,98010.88
2022-09-24T04:31:41.418Z,98002.03
2022-09-24T04:34:43.719Z,98003.47
2022-09-24T04:37:46.586Z,98005.03
2022-09-24T04:40:49.595Z,98001.84
2022-09-24T04:43:51.528Z,98008.13
2022-09-24T04:46:53.661Z,98003.25
2022-09-24T04:49:55.933Z,98004.69
2022-09-24T04:52:58.065Z,97998.94
2022-09-24T04:56:00.414Z,97996.56
2022-09-24T04:59:02.575Z,97999.63
2022-09-24T05:02:09.648Z,97987.22
2022-09-24T05:05:12.697Z,97992.63
2022-09-24T05:08:15.822Z,97994.31
2022-09-24T05:11:19.494Z,97991.69
2022-09-24T05:14:21.206Z,97990.34
2022-09-24T05:17:23.307Z,97997.38
2022-09-24T05:20:25.877Z,97998.41
2022-09-24T05:23:28.267Z,97998.41
2022-09-24T05:26:48.812Z,97990.47
2022-09-24T05:29:51.421Z,97989.13
2022-09-24T05:32:53.673Z,97994.53
2022-09-24T05:35:56.684Z,97992.34
2022-09-24T05:38:59.238Z,98000.88
2022-09-24T05:42:04.525Z,97999.66
2022-09-24T05:45:07.263Z,97998.28
2022-09-24T05:48:09.209Z,98005.19
2022-09-24T05:51:11.469Z,98008.50
2022-09-24T05:54:14.053Z,98002.75
2022-09-24T05:57:16.828Z,98001.63
2022-09-24T06:00:19.681Z,98006.19
2022-09-24T06:03:21.749Z,97995.34
2022-09-24T06:06:27.568Z,98002.50
2022-09-24T06:09:29.453Z,98003.88
2022-09-24T06:12:35.096Z,98003.84
2022-09-24T06:15:38.717Z,98007.72
2022-09-24T06:18:43.077Z,98007.97
2022-09-24T06:21:45.370Z,98004.69
2022-09-24T06:24:47.679Z,98014.06
2022-09-24T06:28:02.747Z,98016.00
2022-09-24T06:31:06.291Z,98019.88
2022-09-24T06:34:09.246Z,98022.72
2022-09-24T06:37:11.541Z,98008.91
2022-09-24T06:40:14.939Z,98014.31
2022-09-24T06:43:18.302Z,98015.50
2022-09-24T06:46:20.577Z,98007.81
2022-09-24T06:49:23.464Z,98005.22
2022-09-24T06:52:25.576Z,98010.78
2022-09-24T06:55:27.946Z,98012.38
2022-09-24T06:58:30.197Z,98013.50
2022-09-24T07:01:32.364Z,98012.41
2022-09-24T07:04:37.538Z,98022.75
2022-09-24T07:07:39.738Z,98021.75
2022-09-24T07:10:44.005Z,98024.66
2022-09-24T07:13:46.079Z,98025.34
2022-09-24T07:16:49.349Z,98022.69
2022-09-24T07:19:51.931Z,98020.28
2022-09-24T07:22:55.473Z,98024.00
2022-09-24T07:25:58.138Z,98026.34
2022-09-24T07:29:00.042Z,98038.63
2022-09-24T07:32:03.886Z,98040.91
2022-09-24T07:35:06.788Z,98036.88
2022-09-24T07:38:12.441Z,98023.31
2022-09-24T07:41:14.750Z,98031.13
2022-09-24T07:44:18.307Z,98031.38
2022-09-24T07:47:20.112Z,98029.09
2022-09-24T07:50:22.470Z,98031.13
2022-09-24T07:53:24.680Z,98029.97
2022-09-24T07:56:26.846Z,98034.75
2022-09-24T07:59:30.802Z,98037.06
2022-09-24T08:02:32.724Z,98027.50
2022-09-24T08:05:35.725Z,98030.50
2022-09-24T08:08:39.151Z,98024.06
2022-09-24T08:11:41.481Z,98027.16
2022-09-24T08:14:45.017Z,98020.91
2022-09-24T08:17:46.833Z,98008.97
2022-09-24T08:20:50.002Z,98006.13
2022-09-24T08:23:52.269Z,98013.16
2022-09-24T08:26:54.774Z,98005.78
2022-09-24T08:29:58.135Z,97997.88
2022-09-24T08:33:00.064Z,98001.34
2022-09-24T08:36:07.816Z,97997.13
2022-09-24T08:39:10.962Z,98011.41
2022-09-24T08:42:34.388Z,98001.72
2022-09-24T08:46:03.441Z,98013.03
2022-09-24T08:49:07.036Z,98002.59
2022-09-24T08:52:23.860Z,97996.91
2022-09-24T08:55:38.807Z,97995.47
2022-09-24T08:59:01.901Z,97997.66
2022-09-24T09:02:42.248Z,98004.78
2022-09-24T09:05:53.658Z,97991.78
2022-09-24T09:09:09.871Z,97998.34
2022-09-24T09:12:18.615Z,97987.72
2022-09-24T09:15:26.123Z,97981.47
2022-09-24T09:18:38.578Z,97976.44
2022-09-24T09:21:43.536Z,97984.19
2022-09-24T09:24:50.031Z,97982.31
2022-09-24T09:28:05.244Z,97983.97
2022-09-24T09:31:40.186Z,97985.81
2022-09-24T09:34:55.442Z,97985.53
2022-09-24T09:38:23.974Z,97988.38
2022-09-24T09:41:38.076Z,97976.88
2022-09-24T09:44:42.225Z,97982.25
2022-09-24T09:47:50.989Z,97973.56
2022-09-24T09:51:06.342Z,97978.94
2022-09-24T09:54:09.315Z,97970.91
2022-09-24T09:57:17.794Z,97971.53
2022-09-24T10:00:38.284Z,97979.00
2022-09-24T10:03:52.688Z,97974.22
2022-09-24T10:07:05.420Z,97975.72
2022-09-24T10:10:26.020Z,97974.22
2022-09-24T10:13:28.102Z,97977.91
2022-09-24T10:16:31.069Z,97969.53
2022-09-24T10:19:36.438Z,97967.75
2022-09-24T10:22:39.064Z,97964.94
2022-09-24T10:25:41.752Z,97970.00
2022-09-24T10:29:08.574Z,97965.75
2022-09-24T10:32:18.764Z,97968.69
2022-09-24T10:35:27.056Z,97969.50
2022-09-24T10:38:30.157Z,97964.31
2022-09-24T10:41:32.860Z,97960.50
2022-09-24T10:44:39.154Z,97966.06
2022-09-24T10:47:45.539Z,97967.38
2022-09-24T10:51:12.373Z,97957.34
2022-09-24T10:54:43.435Z,97957.16
2022-09-24T10:58:06.809Z,97951.41
2022-09-24T11:01:39.553Z,97957.84
2022-09-24T11:04:55.063Z,97962.06
2022-09-24T11:08:30.934Z,97960.59
2022-09-24T11:11:37.133Z,97961.00
2022-09-24T11:14:56.044Z,97949.94
2022-09-24T11:18:16.475Z,97944.47
2022-09-24T11:21:37.703Z,97943.19
2022-09-24T11:25:09.376Z,97938.38
2022-09-24T11:28:26.318Z,97928.34
2022-09-24T11:31:41.893Z,97939.47
2022-09-24T11:34:53.123Z,97935.66
2022-09-24T11:38:19.783Z,97928.06
2022-09-24T11:41:48.031Z,97931.44
2022-09-24T11:45:00.385Z,97939.72
2022-09-24T11:48:11.465Z,97937.31
2022-09-24T11:51:39.407Z,97946.84
2022-09-24T11:55:12.425Z,97947.50
2022-09-24T11:58:24.493Z,97940.50
2022-09-24T12:01:33.903Z,97938.38
2022-09-24T12:04:51.311Z,97937.34
2022-09-24T12:07:56.448Z,97927.31
2022-09-24T12:11:04.120Z,97936.72
2022-09-24T12:14:20.580Z,97923.97
2022-09-24T12:17:32.357Z,97922.75
2022-09-24T12:21:02.569Z,97924.00
2022-09-24T12:24:11.696Z,97932.19
2022-09-24T12:27:21.321Z,97914.22
2022-09-24T12:31:03.120Z,97916.25
2022-09-24T12:34:12.303Z,97909.66
2022-09-24T12:37:17.798Z,97904.81
2022-09-24T12:40:48.698Z,97898.16
2022-09-24T12:44:18.331Z,97890.03
2022-09-24T12:47:25.650Z,97901.91
2022-09-24T12:50:31.251Z,97889.66
2022-09-24T12:53:35.889Z,97894.16
2022-09-24T12:56:38.548Z,97902.97
2022-09-24T12:59:56.894Z,97897.38
2022-09-24T13:03:01.442Z,97895.78
2022-09-24T13:06:06.292Z,97888.22
2022-09-24T13:09:46.912Z,97875.72
2022-09-24T13:12:49.722Z,97879.81
2022-09-24T13:16:06.425Z,97892.53
2022-09-24T13:19:25.849Z,97889.84
2022-09-24T13:22:34.797Z,97883.09
2022-09-24T13:25:38.214Z,97885.56
2022-09-24T13:28:51.450Z,97884.72
2022-09-24T13:32:01.196Z,97885.53
2022-09-24T13:35:08.194Z,97883.44
2022-09-24T13:38:20.238Z,97879.97
2022-09-24T13:41:40.993Z,97873.63
2022-09-24T13:44:45.924Z,97864.44
2022-09-24T13:47:52.234Z,97862.19
2022-09-24T13:50:55.820Z,97857.31
2022-09-24T13:54:19.758Z,97858.94
2022-09-24T13:57:27.060Z,97852.84
2022-09-24T14:00:32.875Z,97856.50
2022-09-24T14:03:37.161Z,97851.19
2022-09-24T14:06:42.052Z,97847.53
2022-09-24T14:09:47.737Z,97844.66
2022-09-24T14:13:12.785Z,97839.56
2022-09-24T14:16:19.362Z,97840.13
2022-09-24T14:19:22.717Z,97834.00
2022-09-24T14:22:31.531Z,97832.38
2022-09-24T14:25:36.663Z,97837.31
2022-09-24T14:28:39.227Z,97846.06
2022-09-24T14:31:51.316Z,97841.34
2022-09-24T14:34:57.117Z,97842.63
2022-09-24T14:38:12.155Z,97834.19
2022-09-24T14:41:18.936Z,97836.47
2022-09-24T14:44:23.859Z,97838.53
2022-09-24T14:47:31.255Z,97833.63
2022-09-24T14:50:38.725Z,97837.09
2022-09-24T14:53:41.494Z,97834.22
2022-09-24T14:56:43.802Z,97831.97
2022-09-24T14:59:47.412Z,97825.03
2022-09-24T15:02:52.677Z,97821.13
2022-09-24T15:06:16.615Z,97820.53
2022-09-24T15:09:31.957Z,97828.53
2022-09-24T15:12:37.818Z,97816.44
2022-09-24T15:15:40.172Z,97816.03
2022-09-24T15:18:42.301Z,97822.16
2022-09-24T15:21:45.563Z,97816.44
2022-09-24T15:24:49.146Z,97816.22
2022-09-24T15:27:54.799Z,97819.97
2022-09-24T15:30:57.776Z,97816.28
2022-09-24T15:33:59.958Z,97816.44
2022-09-24T15:37:02.438Z,97819.81
2022-09-24T15:40:13.129Z,97817.13
2022-09-24T15:43:21.834Z,97821.38
2022-09-24T15:46:26.774Z,97815.47
2022-09-24T15:49:28.799Z,97825.31
2022-09-24T15:52:33.818Z,97825.25
2022-09-24T15:55:36.609Z,97822.53
2022-09-24T15:58:39.005Z,97834.50
2022-09-24T16:01:42.136Z,97826.16
2022-09-24T16:04:44.519Z,97834.97
2022-09-24T16:07:47.517Z,97829.16
2022-09-24T16:10:50.079Z,97834.38
2022-09-24T16:13:53.430Z,97833.03
2022-09-24T16:16:56.208Z,97830.13
2022-09-24T16:19:58.816Z,97828.47
2022-09-24T16:23:01.416Z,97831.78
2022-09-24T16:26:03.791Z,97833.38
2022-09-24T16:29:07.250Z,97828.31
2022-09-24T16:32:09.205Z,97832.59
2022-09-24T16:35:14.167Z,97830.00
2022-09-24T16:38:22.298Z,97827.56
2022-09-24T16:41:25.967Z,97824.19
2022-09-24T16:44:28.491Z,97826.88
2022-09-24T16:47:34.650Z,97833.72
2022-09-24T16:50:37.305Z,97840.09
2022-09-24T16:53:41.429Z,97837.19
2022-09-24T16:56:52.514Z,97842.34
2022-09-24T16:59:54.513Z,97838.53
2022-09-24T17:02:57.316Z,97842.47
2022-09-24T17:05:59.551Z,97827.78
2022-09-24T17:09:20.617Z,97841.47
2022-09-24T17:12:22.837Z,97832.22
2022-09-24T17:15:24.804Z,97833.44
2022-09-24T17:18:27.884Z,97833.69
2022-09-24T17:21:30.198Z,97830.69
2022-09-24T17:24:33.567Z,97839.16
2022-09-24T17:27:36.056Z,97836.91
2022-09-24T17:30:39.299Z,97842.66
2022-09-24T17:33:45.558Z,97839.41
2022-09-24T17:36:48.310Z,97845.03
2022-09-24T17:39:50.599Z,97841.47
2022-09-24T17:42:53.244Z,97851.91
2022-09-24T17:46:03.450Z,97853.56
2022-09-24T17:49:06.430Z,97849.50
2022-09-24T17:52:09.035Z,97863.22
2022-09-24T17:55:14.614Z,97859.13
2022-09-24T17:58:17.619Z,97861.34
2022-09-24T18:01:25.264Z,97858.72
2022-09-24T18:04:32.160Z,97868.34
2022-09-24T18:07:34.753Z,97864.25
2022-09-24T18:10:37.461Z,97869.53
2022-09-24T18:13:39.937Z,97866.28
2022-09-24T18:16:43.077Z,97874.00
2022-09-24T18:19:46.039Z,97873.66
2022-09-24T18:22:48.258Z,97871.91
2022-09-24T18:25:53.582Z,97878.28
2022-09-24T18:28:58.747Z,97874.53
2022-09-24T18:32:02.252Z,97885.41
2022-09-24T18:35:04.884Z,97884.47
2022-09-24T18:38:09.239Z,97886.47
2022-09-24T18:41:16.778Z,97885.47
2022-09-24T18:44:20.119Z,97885.16
2022-09-24T18:47:22.289Z,97879.25
2022-09-24T18:50:26.673Z,97877.97
2022-09-24T18:53:31.503Z,97872.34
2022-09-24T18:56:34.218Z,97881.09
2022-09-24T18:59:47.755Z,97878.47
2022-09-24T19:02:50.093Z,97883.25
2022-09-24T19:05:54.050Z,97879.94
2022-09-24T19:08:56.520Z,97875.34
2022-09-24T19:11:59.337Z,97878.00
2022-09-24T19:15:02.023Z,97876.66
2022-09-24T19:18:04.439Z,97873.25
2022-09-24T19:21:08.645Z,97874.69
2022-09-24T19:24:11.926Z,97877.66
2022-09-24T19:27:14.505Z,97879.31
2022-09-24T19:30:18.386Z,97872.25
2022-09-24T19:33:21.502Z,97874.03
2022-09-24T19:36:24.026Z,97865.50
2022-09-24T19:39:27.092Z,97869.63
2022-09-24T19:42:31.806Z,97861.22
2022-09-24T19:45:34.099Z,97852.03
2022-09-24T19:48:40.727Z,97849.72
2022-09-24T19:51:43.703Z,97849.06
2022-09-24T19:54:50.009Z,97849.06
2022-09-24T19:57:53.054Z,97855.97
2022-09-24T20:00:55.371Z,97850.53
2022-09-24T20:03:59.556Z,97852.69
2022-09-24T20:07:05.807Z,97850.53
2022-09-24T20:10:10.498Z,97851.72
2022-09-24T20:13:13.232Z,97852.03
2022-09-24T20:16:19.898Z,97853.31
2022-09-24T20:19:22.484Z,97851.03
2022-09-24T20:22:26.631Z,97851.22
2022-09-24T20:25:47.309Z,97854.31
2022-09-24T20:28:49.997Z,97849.41
2022-09-24T20:31:55.372Z,97854.31
2022-09-24T20:35:01.513Z,97848.06
2022-09-24T20:38:03.826Z,97849.25
2022-09-24T20:41:16.699Z,97850.72
2022-09-24T20:44:19.471Z,97846.78
2022-09-24T20:47:22.134Z,97853.38
2022-09-24T20:50:24.858Z,97854.03
2022-09-24T20:53:29.206Z,97856.50
2022-09-24T20:56:31.796Z,97863.91
2022-09-24T20:59:34.121Z,97858.81
2022-09-24T21:02:41.562Z,97860.94
2022-09-24T21:05:45.087Z,97856.50
2022-09-24T21:08:48.072Z,97859.97
2022-09-24T21:11:50.672Z,97849.59
2022-09-24T21:14:52.930Z,97857.63
2022-09-24T21:18:21.171Z,97858.28
2022-09-24T21:21:20.850Z,97844.09
2022-09-24T21:24:26.326Z,97846.06
2022-09-24T21:27:30.394Z,97846.56
2022-09-24T21:30:32.274Z,97847.69
2022-09-24T21:33:35.665Z,97842.59
2022-09-24T21:36:44.549Z,97849.34
2022-09-24T21:39:47.352Z,97847.66
2022-09-24T21:42:50.177Z,97848.00
2022-09-24T21:45:55.320Z,97849.34
2022-09-24T21:48:57.456Z,97849.66
2022-09-24T21:51:59.888Z,97850.28
2022-09-24T21:55:01.733Z,97852.56
2022-09-24T21:58:03.831Z,97844.69
2022-09-24T22:01:28.466Z,97839.25
2022-09-24T22:04:32.823Z,97839.72
2022-09-24T22:07:35.102Z,97836.78
2022-09-24T22:10:37.552Z,97837.75
2022-09-24T22:13:40.559Z,97850.25
2022-09-24T22:16:42.605Z,97847.28
2022-09-24T22:19:44.747Z,97841.03
2022-09-24T22:22:46.590Z,97841.22
2022-09-24T22:25:55.401Z,97841.88
2022-09-24T22:28:57.580Z,97837.75
2022-09-24T22:31:59.770Z,97836.09
2022-09-24T22:35:20.266Z,97841.22
2022-09-24T22:38:23.611Z,97832.84
2022-09-24T22:41:31.320Z,97839.59
2022-09-24T22:44:33.670Z,97831.25
2022-09-24T22:47:35.657Z,97817.78
2022-09-24T22:50:37.584Z,97821.56
2022-09-24T22:53:41.271Z,97817.44
2022-09-24T22:56:43.261Z,97819.06
2022-09-24T22:59:46.194Z,97817.59
2022-09-24T23:02:48.123Z,97819.91
2022-09-24T23:05:51.683Z,97815.16
2022-09-24T23:08:55.083Z,97814.84
2022-09-24T23:11:56.848Z,97814.84
2022-09-24T23:14:59.973Z,97820.09
2022-09-24T23:18:01.970Z,97822.06
2022-09-24T23:21:08.262Z,97815.16
2022-09-24T23:24:20.066Z,97812.03
2022-09-24T23:27:22.589Z,97809.91
2022-09-24T23:30:24.829Z,97808.91
2022-09-24T23:33:26.836Z,97802.97
2022-09-24T23:36:31.565Z,97793.91
2022-09-24T23:39:33.902Z,97803.44
2022-09-24T23:42:35.676Z,97805.88
2022-09-24T23:45:37.931Z,97801.97
2022-09-24T23:48:40.092Z,97803.28
2022-09-24T23:51:42.563Z,97801.97
2022-09-24T23:54:44.764Z,97798.50
2022-09-24T23:57:46.584Z,97802.13
